sensor_id;sensor_type;location;lat;lon;timestamp;P1;durP1;ratioP1;P2;durP2;ratioP2
10659;SDS011;5378;53.206;13.316;2023-08-20T00:01:08;16.30;;;13.33;;
10659;SDS011;5378;53.206;13.316;2023-08-20T00:03:58;17.60;;;13.57;;
10659;SDS011;5378;53.206;13.316;2023-08-20T00:06:46;19.33;;;13.93;;
10659;SDS011;5378;53.206;13.316;2023-08-20T00:09:35;22.23;;;14.00;;
10659;SDS011;5378;53.206;13.316;2023-08-20T00:12:23;21.37;;;14.20;;
10659;SDS011;5378;53.206;13.316;2023-08-20T00:15:11;21.37;;;15.10;;
10659;SDS011;5378;53.206;13.316;2023-08-20T00:17:59;20.60;;;14.43;;
10659;SDS011;5378;53.206;13.316;2023-08-20T00:20:46;18.47;;;13.80;;
10659;SDS011;5378;53.206;13.316;2023-08-20T00:23:34;18.00;;;13.20;;
10659;SDS011;5378;53.206;13.316;2023-08-20T00:26:23;19.40;;;14.30;;
10659;SDS011;5378;53.206;13.316;2023-08-20T00:29:11;20.10;;;14.60;;
10659;SDS011;5378;53.206;13.316;2023-08-20T00:31:58;22.07;;;14.80;;
10659;SDS011;5378;53.206;13.316;2023-08-20T00:34:45;19.50;;;13.73;;
10659;SDS011;5378;53.206;13.316;2023-08-20T00:37:32;16.37;;;13.10;;
10659;SDS011;5378;53.206;13.316;2023-08-20T00:40:20;18.07;;;13.17;;
10659;SDS011;5378;53.206;13.316;2023-08-20T00:43:08;17.90;;;13.50;;
10659;SDS011;5378;53.206;13.316;2023-08-20T00:45:58;17.47;;;14.23;;
10659;SDS011;5378;53.206;13.316;2023-08-20T00:48:45;25.93;;;13.77;;
10659;SDS011;5378;53.206;13.316;2023-08-20T00:51:33;21.37;;;13.73;;
10659;SDS011;5378;53.206;13.316;2023-08-20T00:54:21;19.70;;;14.30;;
10659;SDS011;5378;53.206;13.316;2023-08-20T00:57:09;21.03;;;15.07;;
10659;SDS011;5378;53.206;13.316;2023-08-20T00:59:58;19.00;;;14.40;;
10659;SDS011;5378;53.206;13.316;2023-08-20T01:02:47;18.43;;;13.60;;
10659;SDS011;5378;53.206;13.316;2023-08-20T01:05:37;19.90;;;14.33;;
10659;SDS011;5378;53.206;13.316;2023-08-20T01:08:33;19.70;;;14.50;;
10659;SDS011;5378;53.206;13.316;2023-08-20T01:11:26;18.30;;;13.87;;
10659;SDS011;5378;53.206;13.316;2023-08-20T01:14:17;19.70;;;14.73;;
10659;SDS011;5378;53.206;13.316;2023-08-20T01:17:06;19.00;;;13.97;;
10659;SDS011;5378;53.206;13.316;2023-08-20T01:19:53;20.73;;;14.60;;
10659;SDS011;5378;53.206;13.316;2023-08-20T01:22:47;21.20;;;14.23;;
10659;SDS011;5378;53.206;13.316;2023-08-20T01:25:55;22.20;;;13.80;;
10659;SDS011;5378;53.206;13.316;2023-08-20T01:28:55;17.33;;;12.83;;
10659;SDS011;5378;53.206;13.316;2023-08-20T01:31:42;19.70;;;13.37;;
10659;SDS011;5378;53.206;13.316;2023-08-20T01:34:31;19.83;;;14.07;;
10659;SDS011;5378;53.206;13.316;2023-08-20T01:37:18;19.70;;;13.40;;
10659;SDS011;5378;53.206;13.316;2023-08-20T01:40:07;17.00;;;11.60;;
10659;SDS011;5378;53.206;13.316;2023-08-20T01:42:56;17.70;;;12.60;;
10659;SDS011;5378;53.206;13.316;2023-08-20T01:45:45;19.27;;;10.57;;
10659;SDS011;5378;53.206;13.316;2023-08-20T01:48:33;17.80;;;11.17;;
10659;SDS011;5378;53.206;13.316;2023-08-20T01:51:20;18.33;;;11.73;;
10659;SDS011;5378;53.206;13.316;2023-08-20T01:54:07;18.87;;;11.83;;
10659;SDS011;5378;53.206;13.316;2023-08-20T01:56:54;14.50;;;11.20;;
10659;SDS011;5378;53.206;13.316;2023-08-20T01:59:41;12.23;;;10.10;;
10659;SDS011;5378;53.206;13.316;2023-08-20T02:02:30;20.50;;;11.50;;
10659;SDS011;5378;53.206;13.316;2023-08-20T02:05:17;14.43;;;11.00;;
10659;SDS011;5378;53.206;13.316;2023-08-20T02:08:05;16.60;;;11.30;;
10659;SDS011;5378;53.206;13.316;2023-08-20T02:10:59;21.03;;;10.80;;
10659;SDS011;5378;53.206;13.316;2023-08-20T02:13:46;13.20;;;10.53;;
10659;SDS011;5378;53.206;13.316;2023-08-20T02:16:33;14.90;;;10.43;;
10659;SDS011;5378;53.206;13.316;2023-08-20T02:19:22;16.27;;;11.40;;
10659;SDS011;5378;53.206;13.316;2023-08-20T02:22:10;14.80;;;10.10;;
10659;SDS011;5378;53.206;13.316;2023-08-20T02:24:57;12.73;;;9.93;;
10659;SDS011;5378;53.206;13.316;2023-08-20T02:27:44;14.80;;;9.50;;
10659;SDS011;5378;53.206;13.316;2023-08-20T02:30:31;14.77;;;10.00;;
10659;SDS011;5378;53.206;13.316;2023-08-20T02:33:24;16.57;;;9.77;;
10659;SDS011;5378;53.206;13.316;2023-08-20T02:36:12;18.37;;;10.30;;
10659;SDS011;5378;53.206;13.316;2023-08-20T02:39:00;12.83;;;9.80;;
10659;SDS011;5378;53.206;13.316;2023-08-20T02:41:49;14.10;;;10.73;;
10659;SDS011;5378;53.206;13.316;2023-08-20T02:44:36;12.83;;;9.97;;
10659;SDS011;5378;53.206;13.316;2023-08-20T02:47:23;13.70;;;8.80;;
10659;SDS011;5378;53.206;13.316;2023-08-20T02:50:11;16.07;;;9.97;;
10659;SDS011;5378;53.206;13.316;2023-08-20T02:53:00;12.10;;;9.20;;
10659;SDS011;5378;53.206;13.316;2023-08-20T02:55:47;12.93;;;9.87;;
10659;SDS011;5378;53.206;13.316;2023-08-20T02:58:34;14.70;;;8.17;;
10659;SDS011;5378;53.206;13.316;2023-08-20T03:01:23;14.57;;;8.90;;
10659;SDS011;5378;53.206;13.316;2023-08-20T03:04:13;11.30;;;8.90;;
10659;SDS011;5378;53.206;13.316;2023-08-20T03:07:00;11.90;;;8.70;;
10659;SDS011;5378;53.206;13.316;2023-08-20T03:09:49;12.70;;;8.47;;
10659;SDS011;5378;53.206;13.316;2023-08-20T03:12:37;16.00;;;8.63;;
10659;SDS011;5378;53.206;13.316;2023-08-20T03:15:24;11.23;;;7.93;;
10659;SDS011;5378;53.206;13.316;2023-08-20T03:18:11;13.10;;;8.90;;
10659;SDS011;5378;53.206;13.316;2023-08-20T03:20:58;12.97;;;8.33;;
10659;SDS011;5378;53.206;13.316;2023-08-20T03:23:45;17.07;;;9.00;;
10659;SDS011;5378;53.206;13.316;2023-08-20T03:26:33;9.80;;;7.90;;
10659;SDS011;5378;53.206;13.316;2023-08-20T03:29:21;14.10;;;7.77;;
10659;SDS011;5378;53.206;13.316;2023-08-20T03:32:09;12.70;;;8.13;;
10659;SDS011;5378;53.206;13.316;2023-08-20T03:34:57;11.07;;;7.83;;
10659;SDS011;5378;53.206;13.316;2023-08-20T03:37:45;12.40;;;8.30;;
10659;SDS011;5378;53.206;13.316;2023-08-20T03:40:32;13.40;;;9.00;;
10659;SDS011;5378;53.206;13.316;2023-08-20T03:43:22;14.53;;;8.13;;
10659;SDS011;5378;53.206;13.316;2023-08-20T03:46:09;13.27;;;9.37;;
10659;SDS011;5378;53.206;13.316;2023-08-20T03:48:56;13.73;;;10.93;;
10659;SDS011;5378;53.206;13.316;2023-08-20T03:51:43;12.07;;;9.17;;
10659;SDS011;5378;53.206;13.316;2023-08-20T03:54:30;16.07;;;10.03;;
10659;SDS011;5378;53.206;13.316;2023-08-20T03:57:17;17.03;;;10.50;;
10659;SDS011;5378;53.206;13.316;2023-08-20T04:00:06;21.17;;;10.37;;
10659;SDS011;5378;53.206;13.316;2023-08-20T04:03:02;15.93;;;11.50;;
10659;SDS011;5378;53.206;13.316;2023-08-20T04:05:49;14.97;;;10.20;;
10659;SDS011;5378;53.206;13.316;2023-08-20T04:08:37;17.13;;;11.23;;
10659;SDS011;5378;53.206;13.316;2023-08-20T04:11:24;19.17;;;10.63;;
10659;SDS011;5378;53.206;13.316;2023-08-20T04:14:11;15.20;;;10.93;;
10659;SDS011;5378;53.206;13.316;2023-08-20T04:16:59;17.47;;;11.37;;
10659;SDS011;5378;53.206;13.316;2023-08-20T04:19:50;15.17;;;10.30;;
10659;SDS011;5378;53.206;13.316;2023-08-20T04:22:37;15.10;;;10.97;;
10659;SDS011;5378;53.206;13.316;2023-08-20T04:25:24;18.23;;;11.37;;
10659;SDS011;5378;53.206;13.316;2023-08-20T04:28:11;22.07;;;12.50;;
10659;SDS011;5378;53.206;13.316;2023-08-20T04:30:59;17.23;;;11.60;;
10659;SDS011;5378;53.206;13.316;2023-08-20T04:34:00;20.03;;;10.80;;
10659;SDS011;5378;53.206;13.316;2023-08-20T04:37:00;18.03;;;11.33;;
10659;SDS011;5378;53.206;13.316;2023-08-20T04:39:48;13.97;;;10.03;;
10659;SDS011;5378;53.206;13.316;2023-08-20T04:42:35;21.80;;;11.27;;
10659;SDS011;5378;53.206;13.316;2023-08-20T04:45:24;19.70;;;11.90;;
10659;SDS011;5378;53.206;13.316;2023-08-20T04:48:11;16.63;;;11.00;;
10659;SDS011;5378;53.206;13.316;2023-08-20T04:51:00;16.20;;;11.60;;
10659;SDS011;5378;53.206;13.316;2023-08-20T04:53:47;20.43;;;11.83;;
10659;SDS011;5378;53.206;13.316;2023-08-20T04:56:34;18.17;;;11.57;;
10659;SDS011;5378;53.206;13.316;2023-08-20T04:59:21;19.10;;;12.50;;
10659;SDS011;5378;53.206;13.316;2023-08-20T05:02:09;36.83;;;12.60;;
10659;SDS011;5378;53.206;13.316;2023-08-20T05:05:05;17.53;;;11.50;;
10659;SDS011;5378;53.206;13.316;2023-08-20T05:07:54;18.90;;;10.63;;
10659;SDS011;5378;53.206;13.316;2023-08-20T05:10:41;17.63;;;11.10;;
10659;SDS011;5378;53.206;13.316;2023-08-20T05:13:30;17.27;;;11.30;;
10659;SDS011;5378;53.206;13.316;2023-08-20T05:16:18;19.03;;;10.87;;
10659;SDS011;5378;53.206;13.316;2023-08-20T05:19:05;15.77;;;11.50;;
10659;SDS011;5378;53.206;13.316;2023-08-20T05:21:52;16.00;;;11.93;;
10659;SDS011;5378;53.206;13.316;2023-08-20T05:24:43;17.10;;;11.67;;
10659;SDS011;5378;53.206;13.316;2023-08-20T05:27:30;17.17;;;11.07;;
10659;SDS011;5378;53.206;13.316;2023-08-20T05:30:18;16.40;;;11.20;;
10659;SDS011;5378;53.206;13.316;2023-08-20T05:33:05;17.87;;;12.47;;
10659;SDS011;5378;53.206;13.316;2023-08-20T05:35:55;18.40;;;12.70;;
10659;SDS011;5378;53.206;13.316;2023-08-20T05:38:42;21.43;;;12.20;;
10659;SDS011;5378;53.206;13.316;2023-08-20T05:41:31;22.23;;;13.40;;
10659;SDS011;5378;53.206;13.316;2023-08-20T05:44:17;21.07;;;12.00;;
10659;SDS011;5378;53.206;13.316;2023-08-20T05:47:05;17.33;;;11.27;;
10659;SDS011;5378;53.206;13.316;2023-08-20T05:49:52;21.00;;;12.03;;
10659;SDS011;5378;53.206;13.316;2023-08-20T05:52:39;20.00;;;11.30;;
10659;SDS011;5378;53.206;13.316;2023-08-20T05:55:26;19.60;;;11.97;;
10659;SDS011;5378;53.206;13.316;2023-08-20T05:58:15;19.00;;;12.60;;
10659;SDS011;5378;53.206;13.316;2023-08-20T06:01:02;26.30;;;12.60;;
10659;SDS011;5378;53.206;13.316;2023-08-20T06:03:49;23.60;;;12.30;;
10659;SDS011;5378;53.206;13.316;2023-08-20T06:06:36;19.63;;;11.37;;
10659;SDS011;5378;53.206;13.316;2023-08-20T06:09:23;18.17;;;12.20;;
10659;SDS011;5378;53.206;13.316;2023-08-20T06:12:10;20.33;;;11.90;;
10659;SDS011;5378;53.206;13.316;2023-08-20T06:14:58;15.40;;;10.07;;
10659;SDS011;5378;53.206;13.316;2023-08-20T06:17:47;18.30;;;11.83;;
10659;SDS011;5378;53.206;13.316;2023-08-20T06:20:34;18.73;;;10.57;;
10659;SDS011;5378;53.206;13.316;2023-08-20T06:23:22;21.43;;;11.40;;
10659;SDS011;5378;53.206;13.316;2023-08-20T06:26:16;21.67;;;12.57;;
10659;SDS011;5378;53.206;13.316;2023-08-20T06:29:03;17.87;;;11.37;;
10659;SDS011;5378;53.206;13.316;2023-08-20T06:31:52;19.83;;;11.00;;
10659;SDS011;5378;53.206;13.316;2023-08-20T06:34:39;29.10;;;11.70;;
10659;SDS011;5378;53.206;13.316;2023-08-20T06:37:26;17.00;;;11.20;;
10659;SDS011;5378;53.206;13.316;2023-08-20T06:40:13;14.60;;;9.60;;
10659;SDS011;5378;53.206;13.316;2023-08-20T06:43:01;24.50;;;11.87;;
10659;SDS011;5378;53.206;13.316;2023-08-20T06:45:48;15.53;;;10.90;;
10659;SDS011;5378;53.206;13.316;2023-08-20T06:48:36;17.27;;;10.50;;
10659;SDS011;5378;53.206;13.316;2023-08-20T06:51:23;15.07;;;10.80;;
10659;SDS011;5378;53.206;13.316;2023-08-20T06:54:14;19.27;;;12.00;;
10659;SDS011;5378;53.206;13.316;2023-08-20T06:57:01;20.73;;;11.00;;
10659;SDS011;5378;53.206;13.316;2023-08-20T06:59:48;18.67;;;11.13;;
10659;SDS011;5378;53.206;13.316;2023-08-20T07:02:35;22.13;;;11.27;;
10659;SDS011;5378;53.206;13.316;2023-08-20T07:05:23;28.30;;;13.30;;
10659;SDS011;5378;53.206;13.316;2023-08-20T07:08:11;32.80;;;13.20;;
10659;SDS011;5378;53.206;13.316;2023-08-20T07:10:58;21.53;;;12.57;;
10659;SDS011;5378;53.206;13.316;2023-08-20T07:13:45;19.60;;;10.60;;
10659;SDS011;5378;53.206;13.316;2023-08-20T07:16:32;22.30;;;11.90;;
10659;SDS011;5378;53.206;13.316;2023-08-20T07:19:19;21.67;;;12.30;;
10659;SDS011;5378;53.206;13.316;2023-08-20T07:22:08;20.37;;;10.97;;
10659;SDS011;5378;53.206;13.316;2023-08-20T07:24:55;18.60;;;10.73;;
10659;SDS011;5378;53.206;13.316;2023-08-20T07:27:44;22.90;;;11.40;;
10659;SDS011;5378;53.206;13.316;2023-08-20T07:30:31;16.30;;;10.63;;
10659;SDS011;5378;53.206;13.316;2023-08-20T07:33:18;24.40;;;9.77;;
10659;SDS011;5378;53.206;13.316;2023-08-20T07:36:05;21.13;;;11.07;;
10659;SDS011;5378;53.206;13.316;2023-08-20T07:38:54;16.97;;;10.70;;
10659;SDS011;5378;53.206;13.316;2023-08-20T07:41:41;17.80;;;10.00;;
10659;SDS011;5378;53.206;13.316;2023-08-20T07:44:29;24.07;;;10.67;;
10659;SDS011;5378;53.206;13.316;2023-08-20T07:47:16;29.30;;;13.10;;
10659;SDS011;5378;53.206;13.316;2023-08-20T07:50:03;21.37;;;12.00;;
10659;SDS011;5378;53.206;13.316;2023-08-20T07:52:51;23.17;;;12.00;;
10659;SDS011;5378;53.206;13.316;2023-08-20T07:55:39;21.13;;;11.73;;
10659;SDS011;5378;53.206;13.316;2023-08-20T07:58:26;18.93;;;12.00;;
10659;SDS011;5378;53.206;13.316;2023-08-20T08:01:15;26.37;;;10.87;;
10659;SDS011;5378;53.206;13.316;2023-08-20T08:04:02;26.17;;;12.13;;
10659;SDS011;5378;53.206;13.316;2023-08-20T08:06:50;21.00;;;12.57;;
10659;SDS011;5378;53.206;13.316;2023-08-20T08:09:37;21.40;;;13.13;;
10659;SDS011;5378;53.206;13.316;2023-08-20T08:12:25;19.70;;;10.83;;
10659;SDS011;5378;53.206;13.316;2023-08-20T08:15:12;20.27;;;11.73;;
10659;SDS011;5378;53.206;13.316;2023-08-20T08:18:00;19.67;;;11.40;;
10659;SDS011;5378;53.206;13.316;2023-08-20T08:20:49;17.17;;;10.63;;
10659;SDS011;5378;53.206;13.316;2023-08-20T08:23:36;29.50;;;12.17;;
10659;SDS011;5378;53.206;13.316;2023-08-20T08:26:23;18.70;;;11.37;;
10659;SDS011;5378;53.206;13.316;2023-08-20T08:29:11;22.40;;;11.90;;
10659;SDS011;5378;53.206;13.316;2023-08-20T08:31:59;22.67;;;13.27;;
10659;SDS011;5378;53.206;13.316;2023-08-20T08:34:46;23.73;;;12.50;;
10659;SDS011;5378;53.206;13.316;2023-08-20T08:37:33;24.70;;;13.00;;
10659;SDS011;5378;53.206;13.316;2023-08-20T08:40:20;21.23;;;11.53;;
10659;SDS011;5378;53.206;13.316;2023-08-20T08:43:08;21.13;;;10.90;;
10659;SDS011;5378;53.206;13.316;2023-08-20T08:46:03;27.17;;;13.10;;
10659;SDS011;5378;53.206;13.316;2023-08-20T08:48:52;18.10;;;11.03;;
10659;SDS011;5378;53.206;13.316;2023-08-20T08:51:41;23.70;;;11.73;;
10659;SDS011;5378;53.206;13.316;2023-08-20T08:54:31;25.67;;;13.50;;
10659;SDS011;5378;53.206;13.316;2023-08-20T08:57:20;21.73;;;11.70;;
10659;SDS011;5378;53.206;13.316;2023-08-20T09:00:07;24.60;;;13.70;;
10659;SDS011;5378;53.206;13.316;2023-08-20T09:02:56;24.03;;;11.20;;
10659;SDS011;5378;53.206;13.316;2023-08-20T09:05:47;20.07;;;11.70;;
10659;SDS011;5378;53.206;13.316;2023-08-20T09:08:35;21.37;;;12.37;;
10659;SDS011;5378;53.206;13.316;2023-08-20T09:11:22;17.97;;;11.30;;
10659;SDS011;5378;53.206;13.316;2023-08-20T09:14:21;21.80;;;11.27;;
10659;SDS011;5378;53.206;13.316;2023-08-20T09:17:09;17.03;;;10.60;;
10659;SDS011;5378;53.206;13.316;2023-08-20T09:19:59;27.33;;;13.10;;
10659;SDS011;5378;53.206;13.316;2023-08-20T09:22:48;21.57;;;13.13;;
10659;SDS011;5378;53.206;13.316;2023-08-20T09:25:35;16.90;;;10.20;;
10659;SDS011;5378;53.206;13.316;2023-08-20T09:28:23;20.23;;;11.33;;
10659;SDS011;5378;53.206;13.316;2023-08-20T09:31:10;15.20;;;10.00;;
10659;SDS011;5378;53.206;13.316;2023-08-20T09:33:58;15.70;;;9.90;;
10659;SDS011;5378;53.206;13.316;2023-08-20T09:36:46;18.70;;;10.33;;
10659;SDS011;5378;53.206;13.316;2023-08-20T09:39:34;18.60;;;10.13;;
10659;SDS011;5378;53.206;13.316;2023-08-20T09:42:20;16.63;;;10.30;;
10659;SDS011;5378;53.206;13.316;2023-08-20T09:45:08;15.97;;;10.57;;
10659;SDS011;5378;53.206;13.316;2023-08-20T09:47:56;13.50;;;9.40;;
10659;SDS011;5378;53.206;13.316;2023-08-20T09:50:46;16.70;;;8.90;;
10659;SDS011;5378;53.206;13.316;2023-08-20T09:53:37;16.27;;;9.93;;
10659;SDS011;5378;53.206;13.316;2023-08-20T09:56:29;14.37;;;9.67;;
10659;SDS011;5378;53.206;13.316;2023-08-20T09:59:17;15.70;;;9.10;;
10659;SDS011;5378;53.206;13.316;2023-08-20T10:02:04;10.33;;;8.37;;
10659;SDS011;5378;53.206;13.316;2023-08-20T10:04:52;18.30;;;10.27;;
10659;SDS011;5378;53.206;13.316;2023-08-20T10:07:39;12.13;;;8.83;;
10659;SDS011;5378;53.206;13.316;2023-08-20T10:10:30;18.93;;;9.33;;
10659;SDS011;5378;53.206;13.316;2023-08-20T10:13:17;13.10;;;9.10;;
10659;SDS011;5378;53.206;13.316;2023-08-20T10:16:05;14.27;;;8.70;;
10659;SDS011;5378;53.206;13.316;2023-08-20T10:18:52;12.93;;;8.33;;
10659;SDS011;5378;53.206;13.316;2023-08-20T10:21:43;11.43;;;7.60;;
10659;SDS011;5378;53.206;13.316;2023-08-20T10:24:39;11.00;;;7.13;;
10659;SDS011;5378;53.206;13.316;2023-08-20T10:27:30;10.13;;;7.27;;
10659;SDS011;5378;53.206;13.316;2023-08-20T10:30:18;9.40;;;6.53;;
10659;SDS011;5378;53.206;13.316;2023-08-20T10:33:10;10.10;;;6.40;;
10659;SDS011;5378;53.206;13.316;2023-08-20T10:36:06;13.13;;;6.60;;
10659;SDS011;5378;53.206;13.316;2023-08-20T10:38:55;10.20;;;7.00;;
10659;SDS011;5378;53.206;13.316;2023-08-20T10:41:43;10.90;;;6.53;;
10659;SDS011;5378;53.206;13.316;2023-08-20T10:44:36;8.93;;;6.33;;
10659;SDS011;5378;53.206;13.316;2023-08-20T10:47:44;10.93;;;6.77;;
10659;SDS011;5378;53.206;13.316;2023-08-20T10:50:33;7.97;;;5.70;;
10659;SDS011;5378;53.206;13.316;2023-08-20T10:53:22;7.83;;;5.30;;
10659;SDS011;5378;53.206;13.316;2023-08-20T10:56:13;6.67;;;4.10;;
10659;SDS011;5378;53.206;13.316;2023-08-20T10:59:05;7.13;;;4.60;;
10659;SDS011;5378;53.206;13.316;2023-08-20T11:01:55;6.03;;;4.40;;
10659;SDS011;5378;53.206;13.316;2023-08-20T11:04:43;4.50;;;3.50;;
10659;SDS011;5378;53.206;13.316;2023-08-20T11:07:30;4.73;;;3.80;;
10659;SDS011;5378;53.206;13.316;2023-08-20T11:10:20;6.00;;;2.90;;
10659;SDS011;5378;53.206;13.316;2023-08-20T11:13:07;3.37;;;3.03;;
10659;SDS011;5378;53.206;13.316;2023-08-20T11:15:55;3.80;;;3.17;;
10659;SDS011;5378;53.206;13.316;2023-08-20T11:18:43;4.77;;;2.97;;
10659;SDS011;5378;53.206;13.316;2023-08-20T11:21:31;4.37;;;3.30;;
10659;SDS011;5378;53.206;13.316;2023-08-20T11:24:19;3.70;;;3.00;;
10659;SDS011;5378;53.206;13.316;2023-08-20T11:27:06;4.63;;;3.03;;
10659;SDS011;5378;53.206;13.316;2023-08-20T11:29:53;3.90;;;2.67;;
10659;SDS011;5378;53.206;13.316;2023-08-20T11:32:41;3.67;;;3.20;;
10659;SDS011;5378;53.206;13.316;2023-08-20T11:35:32;7.13;;;3.00;;
10659;SDS011;5378;53.206;13.316;2023-08-20T11:38:20;3.03;;;2.10;;
10659;SDS011;5378;53.206;13.316;2023-08-20T11:41:09;4.70;;;1.70;;
10659;SDS011;5378;53.206;13.316;2023-08-20T11:43:56;1.93;;;1.27;;
10659;SDS011;5378;53.206;13.316;2023-08-20T11:46:43;1.40;;;1.10;;
10659;SDS011;5378;53.206;13.316;2023-08-20T11:49:30;1.90;;;1.70;;
10659;SDS011;5378;53.206;13.316;2023-08-20T11:52:19;2.13;;;1.77;;
10659;SDS011;5378;53.206;13.316;2023-08-20T11:55:07;1.70;;;1.60;;
10659;SDS011;5378;53.206;13.316;2023-08-20T11:57:55;3.60;;;1.80;;
10659;SDS011;5378;53.206;13.316;2023-08-20T12:00:42;5.30;;;1.27;;
10659;SDS011;5378;53.206;13.316;2023-08-20T12:03:36;5.27;;;2.10;;
10659;SDS011;5378;53.206;13.316;2023-08-20T12:06:24;3.03;;;1.63;;
10659;SDS011;5378;53.206;13.316;2023-08-20T12:09:20;3.10;;;1.73;;
10659;SDS011;5378;53.206;13.316;2023-08-20T12:12:08;2.40;;;1.67;;
10659;SDS011;5378;53.206;13.316;2023-08-20T12:14:56;3.60;;;2.03;;
10659;SDS011;5378;53.206;13.316;2023-08-20T12:17:43;2.00;;;1.43;;
10659;SDS011;5378;53.206;13.316;2023-08-20T12:20:30;4.00;;;2.40;;
10659;SDS011;5378;53.206;13.316;2023-08-20T12:23:18;11.80;;;2.47;;
10659;SDS011;5378;53.206;13.316;2023-08-20T12:26:06;5.30;;;1.90;;
10659;SDS011;5378;53.206;13.316;2023-08-20T12:28:54;4.60;;;2.13;;
10659;SDS011;5378;53.206;13.316;2023-08-20T12:31:41;1.80;;;1.60;;
10659;SDS011;5378;53.206;13.316;2023-08-20T12:34:29;2.93;;;1.60;;
10659;SDS011;5378;53.206;13.316;2023-08-20T12:37:16;3.37;;;1.80;;
10659;SDS011;5378;53.206;13.316;2023-08-20T12:40:04;2.80;;;2.00;;
10659;SDS011;5378;53.206;13.316;2023-08-20T12:42:57;4.10;;;1.60;;
10659;SDS011;5378;53.206;13.316;2023-08-20T12:45:44;3.37;;;1.40;;
10659;SDS011;5378;53.206;13.316;2023-08-20T12:48:31;8.03;;;2.00;;
10659;SDS011;5378;53.206;13.316;2023-08-20T12:51:18;7.87;;;2.10;;
10659;SDS011;5378;53.206;13.316;2023-08-20T12:54:06;3.43;;;1.60;;
10659;SDS011;5378;53.206;13.316;2023-08-20T12:56:54;3.77;;;1.97;;
10659;SDS011;5378;53.206;13.316;2023-08-20T12:59:42;7.10;;;1.67;;
10659;SDS011;5378;53.206;13.316;2023-08-20T13:02:30;5.33;;;2.17;;
10659;SDS011;5378;53.206;13.316;2023-08-20T13:05:17;3.70;;;1.80;;
10659;SDS011;5378;53.206;13.316;2023-08-20T13:08:05;3.17;;;1.63;;
10659;SDS011;5378;53.206;13.316;2023-08-20T13:10:54;3.17;;;1.57;;
10659;SDS011;5378;53.206;13.316;2023-08-20T13:13:43;6.53;;;1.47;;
10659;SDS011;5378;53.206;13.316;2023-08-20T13:16:32;3.53;;;1.97;;
10659;SDS011;5378;53.206;13.316;2023-08-20T13:19:19;3.20;;;1.50;;
10659;SDS011;5378;53.206;13.316;2023-08-20T13:22:06;3.20;;;1.73;;
10659;SDS011;5378;53.206;13.316;2023-08-20T13:24:53;3.57;;;1.93;;
10659;SDS011;5378;53.206;13.316;2023-08-20T13:27:41;5.87;;;1.90;;
10659;SDS011;5378;53.206;13.316;2023-08-20T13:30:28;3.20;;;1.70;;
10659;SDS011;5378;53.206;13.316;2023-08-20T13:33:17;4.23;;;2.17;;
10659;SDS011;5378;53.206;13.316;2023-08-20T13:36:04;2.40;;;1.57;;
10659;SDS011;5378;53.206;13.316;2023-08-20T13:38:52;2.97;;;1.60;;
10659;SDS011;5378;53.206;13.316;2023-08-20T13:41:40;2.40;;;1.70;;
10659;SDS011;5378;53.206;13.316;2023-08-20T13:44:27;2.00;;;1.63;;
10659;SDS011;5378;53.206;13.316;2023-08-20T13:47:14;5.63;;;1.63;;
10659;SDS011;5378;53.206;13.316;2023-08-20T13:50:02;2.70;;;1.50;;
10659;SDS011;5378;53.206;13.316;2023-08-20T13:52:50;3.30;;;1.60;;
10659;SDS011;5378;53.206;13.316;2023-08-20T13:55:37;4.80;;;1.67;;
10659;SDS011;5378;53.206;13.316;2023-08-20T13:58:24;2.07;;;1.50;;
10659;SDS011;5378;53.206;13.316;2023-08-20T14:01:11;3.57;;;1.40;;
10659;SDS011;5378;53.206;13.316;2023-08-20T14:03:58;4.90;;;1.37;;
10659;SDS011;5378;53.206;13.316;2023-08-20T14:06:47;2.10;;;1.57;;
10659;SDS011;5378;53.206;13.316;2023-08-20T14:09:34;2.83;;;1.43;;
10659;SDS011;5378;53.206;13.316;2023-08-20T14:12:22;8.73;;;1.50;;
10659;SDS011;5378;53.206;13.316;2023-08-20T14:15:09;4.80;;;1.90;;
10659;SDS011;5378;53.206;13.316;2023-08-20T14:17:57;2.20;;;1.13;;
10659;SDS011;5378;53.206;13.316;2023-08-20T14:20:44;1.57;;;1.37;;
10659;SDS011;5378;53.206;13.316;2023-08-20T14:23:33;1.67;;;0.97;;
10659;SDS011;5378;53.206;13.316;2023-08-20T14:26:20;5.57;;;1.40;;
10659;SDS011;5378;53.206;13.316;2023-08-20T14:29:07;5.00;;;2.27;;
10659;SDS011;5378;53.206;13.316;2023-08-20T14:31:54;2.00;;;1.20;;
10659;SDS011;5378;53.206;13.316;2023-08-20T14:34:41;4.50;;;1.33;;
10659;SDS011;5378;53.206;13.316;2023-08-20T14:37:28;2.83;;;1.50;;
10659;SDS011;5378;53.206;13.316;2023-08-20T14:40:17;6.30;;;1.50;;
10659;SDS011;5378;53.206;13.316;2023-08-20T14:43:04;3.40;;;1.40;;
10659;SDS011;5378;53.206;13.316;2023-08-20T14:45:52;3.30;;;1.20;;
10659;SDS011;5378;53.206;13.316;2023-08-20T14:48:40;2.90;;;1.27;;
10659;SDS011;5378;53.206;13.316;2023-08-20T14:51:28;5.50;;;1.50;;
10659;SDS011;5378;53.206;13.316;2023-08-20T14:54:15;2.60;;;1.43;;
10659;SDS011;5378;53.206;13.316;2023-08-20T14:57:04;1.90;;;1.53;;
10659;SDS011;5378;53.206;13.316;2023-08-20T14:59:51;3.00;;;1.53;;
10659;SDS011;5378;53.206;13.316;2023-08-20T15:02:38;3.13;;;1.50;;
10659;SDS011;5378;53.206;13.316;2023-08-20T15:05:26;2.10;;;1.10;;
10659;SDS011;5378;53.206;13.316;2023-08-20T15:08:14;4.00;;;1.20;;
10659;SDS011;5378;53.206;13.316;2023-08-20T15:11:01;2.60;;;1.10;;
10659;SDS011;5378;53.206;13.316;2023-08-20T15:13:50;4.23;;;1.27;;
10659;SDS011;5378;53.206;13.316;2023-08-20T15:16:38;1.60;;;1.40;;
10659;SDS011;5378;53.206;13.316;2023-08-20T15:19:26;1.10;;;1.00;;
10659;SDS011;5378;53.206;13.316;2023-08-20T15:22:13;1.83;;;1.20;;
10659;SDS011;5378;53.206;13.316;2023-08-20T15:25:00;2.17;;;1.10;;
10659;SDS011;5378;53.206;13.316;2023-08-20T15:27:49;1.77;;;1.17;;
10659;SDS011;5378;53.206;13.316;2023-08-20T15:30:37;3.30;;;1.10;;
10659;SDS011;5378;53.206;13.316;2023-08-20T15:33:25;2.67;;;1.37;;
10659;SDS011;5378;53.206;13.316;2023-08-20T15:36:12;1.47;;;0.90;;
10659;SDS011;5378;53.206;13.316;2023-08-20T15:38:59;0.97;;;0.60;;
10659;SDS011;5378;53.206;13.316;2023-08-20T15:41:47;2.27;;;1.20;;
10659;SDS011;5378;53.206;13.316;2023-08-20T15:44:34;1.90;;;1.00;;
10659;SDS011;5378;53.206;13.316;2023-08-20T15:47:22;1.20;;;0.73;;
10659;SDS011;5378;53.206;13.316;2023-08-20T15:50:10;1.20;;;1.10;;
10659;SDS011;5378;53.206;13.316;2023-08-20T15:52:58;2.10;;;0.77;;
10659;SDS011;5378;53.206;13.316;2023-08-20T15:55:45;2.10;;;0.90;;
10659;SDS011;5378;53.206;13.316;2023-08-20T15:58:32;2.60;;;1.03;;
10659;SDS011;5378;53.206;13.316;2023-08-20T16:01:19;4.77;;;1.20;;
10659;SDS011;5378;53.206;13.316;2023-08-20T16:04:08;2.10;;;0.90;;
10659;SDS011;5378;53.206;13.316;2023-08-20T16:06:55;3.43;;;1.30;;
10659;SDS011;5378;53.206;13.316;2023-08-20T16:09:42;1.37;;;0.90;;
10659;SDS011;5378;53.206;13.316;2023-08-20T16:12:29;3.67;;;1.00;;
10659;SDS011;5378;53.206;13.316;2023-08-20T16:15:16;2.60;;;1.17;;
10659;SDS011;5378;53.206;13.316;2023-08-20T16:18:03;1.40;;;1.00;;
10659;SDS011;5378;53.206;13.316;2023-08-20T16:20:52;5.60;;;1.53;;
10659;SDS011;5378;53.206;13.316;2023-08-20T16:23:40;1.43;;;1.10;;
10659;SDS011;5378;53.206;13.316;2023-08-20T16:26:27;2.57;;;0.87;;
10659;SDS011;5378;53.206;13.316;2023-08-20T16:29:14;2.03;;;1.17;;
10659;SDS011;5378;53.206;13.316;2023-08-20T16:32:01;2.07;;;1.40;;
10659;SDS011;5378;53.206;13.316;2023-08-20T16:34:49;4.50;;;1.40;;
10659;SDS011;5378;53.206;13.316;2023-08-20T16:37:38;1.20;;;1.00;;